Time;durP1;ratioP1;P1;durP2;ratioP2;P2;SDS_P1;SDS_P2;PMS_P1;PMS_P2;Temp;Humidity;BMP_temperature;BMP_pressure;BME280_temperature;BME280_humidity;BME280_pressure;Samples;Min_cycle;Max_cycle;Signal;HPM_P1;HPM_P2
2022/06/28 00:02:01;;;;;;;0.87;0.87;;;18.90;99.90;;;19.51;nan;101148.97;4955944;28;20639;-65
2022/06/28 00:04:28;;;;;;;0.83;0.83;;;18.80;99.90;;;19.51;nan;101146.34;4973512;28;20979;-65
2022/06/28 00:06:56;;;;;;;1.40;1.30;;;18.80;99.90;;;19.52;nan;101148.84;4972737;28;20662;-65
2022/06/28 00:09:23;;;;;;;0.90;0.80;;;18.80;99.90;;;19.45;nan;101147.78;4974811;28;21009;-65
2022/06/28 00:11:51;;;;;;;1.90;0.90;;;18.70;99.90;;;19.42;nan;101153.41;4974059;28;20657;-67
2022/06/28 00:17:05;;;;;;;0.80;0.80;;;18.70;99.90;;;19.43;nan;101159.53;4964448;28;21041;-65
2022/06/28 00:19:32;;;;;;;1.10;1.00;;;18.70;99.90;;;19.41;nan;101161.50;4968168;28;20631;-66
2022/06/28 00:21:59;;;;;;;0.90;0.90;;;18.70;99.90;;;19.44;nan;101167.31;4972822;28;20627;-63
2022/06/28 00:24:26;;;;;;;0.80;0.80;;;18.70;99.90;;;19.39;nan;101158.16;4954195;28;20628;-65
2022/06/28 00:26:53;;;;;;;0.80;0.80;;;18.70;99.90;;;19.43;nan;101155.06;4954387;28;20704;-65
2022/06/28 00:29:20;;;;;;;1.07;0.87;;;18.70;99.90;;;19.36;nan;101148.72;4967037;28;20643;-65
2022/06/28 00:31:48;;;;;;;1.47;0.90;;;18.70;99.90;;;19.39;nan;101148.41;4959084;28;21251;-64
2022/06/28 00:34:15;;;;;;;0.80;0.80;;;18.70;99.90;;;19.37;nan;101141.63;4952991;28;20744;-65
2022/06/28 00:36:42;;;;;;;0.80;0.80;;;18.70;99.90;;;19.36;nan;101154.00;4957847;28;20691;-66
2022/06/28 00:39:09;;;;;;;1.37;1.10;;;18.60;99.90;;;19.45;nan;101158.38;4964921;28;20630;-66
2022/06/28 00:41:37;;;;;;;0.70;0.70;;;18.70;99.90;;;19.49;nan;101157.09;4971228;28;20646;-65
2022/06/28 00:44:04;;;;;;;0.80;0.80;;;18.80;99.90;;;19.52;nan;101154.16;4970400;28;20619;-65
2022/06/28 00:46:35;;;;;;;0.90;0.90;;;18.80;99.90;;;19.51;nan;101152.47;4960285;28;20651;-66
2022/06/28 00:49:03;;;;;;;0.80;0.80;;;18.80;99.90;;;19.49;nan;101148.31;4963149;28;21007;-65
2022/06/28 00:51:31;;;;;;;1.53;1.17;;;18.80;99.90;;;19.47;nan;101159.06;4971789;28;20629;-66
2022/06/28 00:53:59;;;;;;;0.80;0.80;;;18.70;99.90;;;19.49;nan;101165.03;4956500;28;20644;-66
2022/06/28 00:56:26;;;;;;;0.80;0.80;;;18.70;99.90;;;19.58;nan;101172.03;4954094;28;20639;-65
2022/06/28 00:58:55;;;;;;;1.13;1.13;;;18.80;99.90;;;19.61;nan;101163.81;4952714;28;20671;-65
2022/06/28 01:01:24;;;;;;;1.03;1.03;;;18.90;99.90;;;19.59;nan;101157.81;4952533;28;20640;-65
2022/06/28 01:03:52;;;;;;;1.00;1.00;;;18.90;99.90;;;19.56;nan;101155.50;4951257;28;20640;-66
2022/06/28 01:06:20;;;;;;;1.53;1.10;;;18.80;99.90;;;19.53;nan;101161.09;4953457;28;20622;-65
2022/06/28 01:08:48;;;;;;;1.27;1.03;;;18.80;99.90;;;19.52;nan;101159.44;4954767;28;20660;-65
2022/06/28 01:11:18;;;;;;;1.00;1.00;;;18.80;99.90;;;19.55;nan;101158.31;4953170;28;20695;-65
2022/06/28 01:14:03;;;;;;;0.90;0.90;;;18.80;99.90;;;19.54;nan;101162.75;4968321;28;20728;-64
2022/06/28 01:16:30;;;;;;;1.03;1.03;;;18.90;99.90;;;19.48;nan;101163.38;4972059;28;20623;-65
2022/06/28 01:18:57;;;;;;;0.97;0.97;;;18.70;99.90;;;19.51;nan;101168.34;4962262;28;20637;-65
2022/06/28 01:21:28;;;;;;;0.97;0.97;;;18.80;99.90;;;19.44;nan;101169.13;4953254;28;20624;-65
2022/06/28 01:23:56;;;;;;;1.03;1.03;;;18.70;99.90;;;19.56;nan;101170.53;4966593;28;20642;-64
2022/06/28 01:26:23;;;;;;;1.17;1.07;;;18.80;99.90;;;19.56;nan;101168.72;4972824;28;20627;-65
2022/06/28 01:28:52;;;;;;;1.17;1.10;;;18.90;99.90;;;19.47;nan;101169.66;4956179;28;21028;-66
2022/06/28 01:31:22;;;;;;;1.03;1.00;;;18.80;99.90;;;19.43;nan;101172.75;4952540;28;21022;-65
2022/06/28 01:33:52;;;;;;;1.10;1.10;;;18.70;99.90;;;19.42;nan;101174.59;4959213;28;20668;-65
2022/06/28 01:36:20;;;;;;;0.90;0.90;;;18.70;99.90;;;19.38;nan;101173.22;4952825;28;20627;-65
2022/06/28 01:38:48;;;;;;;1.00;1.00;;;18.70;99.90;;;19.29;nan;101176.75;4956480;28;20655;-65
2022/06/28 01:41:33;;;;;;;0.80;0.80;;;18.60;99.90;;;19.26;nan;101174.41;4954191;28;20640;-65
2022/06/28 01:44:04;;;;;;;1.20;1.10;;;18.60;99.90;;;19.17;nan;101185.91;4952746;28;20662;-66
2022/06/28 01:46:34;;;;;;;1.10;1.10;;;18.40;99.90;;;19.05;nan;101182.69;4952778;28;20633;-66
2022/06/28 01:49:01;;;;;;;1.27;1.13;;;18.40;99.90;;;18.95;nan;101176.59;4959033;28;20651;-64
2022/06/28 01:51:28;;;;;;;2.57;1.50;;;18.30;99.90;;;19.02;nan;101182.13;4962930;28;20627;-68
2022/06/28 01:53:55;;;;;;;1.20;1.07;;;18.30;99.90;;;19.00;nan;101179.63;4960307;28;20694;-65
2022/06/28 01:56:22;;;;;;;1.10;1.10;;;18.30;99.90;;;18.94;nan;101190.81;4972475;28;20628;-67
2022/06/28 01:58:49;;;;;;;1.10;1.10;;;18.20;99.90;;;18.88;nan;101187.94;4970886;28;20675;-64
2022/06/28 02:01:16;;;;;;;1.30;1.30;;;18.20;99.90;;;18.89;nan;101192.28;4963767;28;20643;-64
2022/06/28 02:03:43;;;;;;;1.50;1.40;;;18.20;99.90;;;18.88;nan;101193.25;4951390;28;20644;-64
2022/06/28 02:06:11;;;;;;;3.33;1.30;;;18.10;99.90;;;18.83;nan;101198.13;4956003;28;20639;-66
2022/06/28 02:08:38;;;;;;;1.03;1.03;;;18.10;99.90;;;18.79;nan;101194.97;4956948;28;20668;-65
2022/06/28 02:11:06;;;;;;;2.00;1.10;;;18.10;99.90;;;18.79;nan;101197.59;4952133;28;20632;-66
2022/06/28 02:13:33;;;;;;;1.00;1.00;;;18.10;99.90;;;18.68;nan;101184.59;4958345;28;20674;-66
2022/06/28 02:16:02;;;;;;;1.40;1.30;;;18.00;99.90;;;18.64;nan;101185.03;4972536;28;20630;-66
2022/06/28 02:18:31;;;;;;;1.30;1.20;;;17.90;99.90;;;18.69;nan;101188.09;4963234;28;20668;-66
2022/06/28 02:20:58;;;;;;;1.10;1.10;;;18.00;99.90;;;18.72;nan;101185.16;4952255;28;20675;-67
2022/06/28 02:23:25;;;;;;;1.47;1.37;;;18.00;99.90;;;18.72;nan;101178.03;4952533;28;20660;-65
2022/06/28 02:25:52;;;;;;;2.77;1.60;;;18.10;99.90;;;18.87;nan;101183.66;4953225;28;20635;-66
2022/06/28 02:28:19;;;;;;;1.30;1.30;;;18.20;99.90;;;18.91;nan;101177.09;4958935;28;20674;-66
2022/06/28 02:30:46;;;;;;;1.20;1.10;;;18.20;99.90;;;18.93;nan;101181.22;4969105;28;20627;-65
2022/06/28 02:33:13;;;;;;;1.63;1.23;;;18.30;99.90;;;19.02;nan;101179.47;4957046;28;20733;-66
2022/06/28 02:41:11;;;;;;;1.43;1.37;;;18.50;99.90;;;19.14;nan;101180.94;4971592;28;20631;-66
2022/06/28 02:43:38;;;;;;;1.13;1.13;;;18.50;99.90;;;19.07;nan;101178.06;4970934;28;21211;-65
2022/06/28 02:46:06;;;;;;;1.00;1.00;;;18.40;99.90;;;19.11;nan;101175.94;4967782;28;20647;-67
2022/06/28 02:48:33;;;;;;;1.20;1.20;;;18.50;99.90;;;19.12;nan;101182.91;4966576;28;20667;-65
2022/06/28 02:51:00;;;;;;;1.20;1.10;;;18.50;99.90;;;19.08;nan;101176.25;4971006;28;21254;-66
2022/06/28 02:53:27;;;;;;;1.40;1.30;;;18.50;99.90;;;18.99;nan;101185.94;4970147;28;20667;-68
2022/06/28 02:55:54;;;;;;;1.30;1.30;;;18.30;99.90;;;18.89;nan;101186.97;4967039;28;20627;-66
2022/06/28 02:58:21;;;;;;;1.37;1.27;;;18.20;99.90;;;18.80;nan;101195.81;4970946;28;20659;-63
2022/06/28 03:00:48;;;;;;;1.67;1.53;;;18.10;99.90;;;18.71;nan;101191.41;4960998;28;21024;-66
2022/06/28 03:03:16;;;;;;;1.10;1.10;;;18.00;99.90;;;18.60;nan;101189.81;4959870;28;20648;-65
2022/06/28 03:05:43;;;;;;;1.30;1.30;;;17.90;99.90;;;18.57;nan;101204.13;4966626;28;20623;-66
2022/06/28 03:08:10;;;;;;;1.50;1.40;;;17.90;99.90;;;18.53;nan;101213.34;4962970;28;20674;-66
2022/06/28 03:10:37;;;;;;;6.20;1.50;;;17.90;99.90;;;18.48;nan;101217.41;4949683;28;20655;-66
2022/06/28 03:13:04;;;;;;;1.33;1.30;;;17.80;99.90;;;18.47;nan;101221.03;4951329;28;21071;-66
2022/06/28 03:15:31;;;;;;;2.03;1.83;;;17.80;99.90;;;18.46;nan;101222.03;4951738;28;20627;-65
2022/06/28 03:17:58;;;;;;;2.20;1.30;;;17.80;99.90;;;18.50;nan;101221.59;4952155;28;20666;-66
2022/06/28 03:20:26;;;;;;;1.50;1.40;;;17.80;99.90;;;18.46;nan;101229.94;4954731;28;20640;-66
2022/06/28 03:22:53;;;;;;;1.60;1.50;;;17.70;99.90;;;18.40;nan;101227.81;4966516;28;20642;-65
2022/06/28 03:25:20;;;;;;;1.60;1.50;;;17.70;99.90;;;18.32;nan;101238.31;4970764;28;20647;-67
2022/06/28 03:27:47;;;;;;;3.13;1.53;;;17.60;99.90;;;18.30;nan;101242.91;4971212;28;20665;-66
2022/06/28 03:30:15;;;;;;;1.93;1.73;;;17.60;99.90;;;18.32;nan;101240.94;4958496;28;21010;-66
2022/06/28 03:32:42;;;;;;;1.63;1.53;;;17.60;99.90;;;18.26;nan;101244.16;4973916;28;21054;-67
2022/06/28 03:35:10;;;;;;;1.87;1.20;;;17.60;99.90;;;18.26;nan;101246.81;4959859;28;20636;-66
2022/06/28 03:37:38;;;;;;;1.07;1.07;;;17.50;99.90;;;18.21;nan;101247.25;4954136;28;21046;-66
2022/06/28 03:40:06;;;;;;;1.30;1.30;;;17.50;99.90;;;18.21;nan;101247.25;4955157;28;21184;-66
2022/06/28 03:42:33;;;;;;;1.37;1.23;;;17.50;99.90;;;18.25;nan;101253.91;4968730;28;20634;-65
2022/06/28 03:45:00;;;;;;;1.00;1.00;;;17.50;99.90;;;18.28;nan;101258.91;4959516;28;20668;-69
2022/06/28 03:47:27;;;;;;;1.60;1.50;;;17.60;99.90;;;18.32;nan;101262.06;4953804;28;20663;-67
2022/06/28 03:49:55;;;;;;;1.43;1.40;;;17.70;99.90;;;18.40;nan;101257.72;4954536;28;20640;-66
2022/06/28 03:52:28;;;;;;;1.23;1.23;;;17.80;99.90;;;18.55;nan;101252.81;4963141;28;20646;-65
2022/06/28 03:54:58;;;;;;;1.27;1.27;;;17.90;99.90;;;18.75;nan;101251.75;4972571;28;21467;-66
2022/06/28 03:57:28;;;;;;;1.33;1.33;;;18.10;99.90;;;18.86;nan;101246.28;4967837;28;20679;-68
2022/06/28 03:59:59;;;;;;;1.40;1.40;;;18.30;99.90;;;19.03;nan;101247.28;4961960;28;20623;-65
2022/06/28 04:02:27;;;;;;;1.30;1.30;;;18.40;99.90;;;19.04;nan;101256.84;4954206;28;20702;-67
2022/06/28 04:04:54;;;;;;;1.50;1.50;;;18.50;99.90;;;19.03;nan;101260.50;4968530;28;20639;-66
2022/06/28 04:07:21;;;;;;;1.40;1.27;;;18.40;99.90;;;19.04;nan;101254.22;4955490;28;20643;-67
2022/06/28 04:09:48;;;;;;;1.40;1.40;;;18.40;99.90;;;19.06;nan;101252.28;4970706;28;20627;-66
2022/06/28 04:12:16;;;;;;;1.53;1.40;;;18.50;99.90;;;19.16;nan;101259.16;4971698;28;20643;-69
2022/06/28 04:14:43;;;;;;;1.10;1.10;;;18.60;99.90;;;19.34;nan;101256.53;4972743;28;20876;-67
2022/06/28 04:17:10;;;;;;;1.37;1.30;;;18.80;99.90;;;19.50;nan;101262.00;4961061;28;21258;-66
2022/06/28 04:19:38;;;;;;;1.30;1.20;;;18.90;99.90;;;19.69;nan;101266.28;4957751;28;21199;-66
2022/06/28 04:22:06;;;;;;;1.43;1.33;;;19.20;99.90;;;19.83;nan;101266.53;4954753;28;21062;-67
2022/06/28 04:24:33;;;;;;;1.47;1.37;;;19.30;99.90;;;20.03;nan;101265.38;4967345;28;20647;-66
2022/06/28 04:27:00;;;;;;;1.33;1.23;;;19.50;99.90;;;20.22;nan;101274.09;4974018;28;20654;-66
2022/06/28 04:29:27;;;;;;;1.50;1.40;;;19.70;99.90;;;20.37;nan;101265.44;4960479;28;20632;-65
2022/06/28 04:31:54;;;;;;;1.10;1.10;;;19.90;99.90;;;20.52;nan;101269.16;4954678;28;20627;-65
2022/06/28 04:34:22;;;;;;;1.90;1.60;;;20.10;99.90;;;20.72;nan;101261.78;4953997;28;20671;-65
2022/06/28 04:36:49;;;;;;;1.60;1.50;;;20.30;99.90;;;20.84;nan;101260.47;4962294;28;20620;-66
2022/06/28 04:39:16;;;;;;;1.63;1.40;;;20.40;99.90;;;20.93;nan;101264.81;4965514;28;20657;-66
2022/06/28 04:41:44;;;;;;;1.30;1.30;;;20.50;99.90;;;21.06;nan;101259.88;4973117;28;20638;-68
2022/06/28 04:44:11;;;;;;;1.87;1.70;;;20.60;99.90;;;21.22;nan;101265.25;4955317;28;20651;-66
2022/06/28 04:46:38;;;;;;;1.30;1.23;;;20.70;99.90;;;21.36;nan;101261.94;4959236;28;20628;-67
2022/06/28 04:49:07;;;;;;;1.10;1.10;;;20.90;99.90;;;21.63;nan;101268.75;4972272;28;20654;-67
2022/06/28 04:51:34;;;;;;;1.70;1.50;;;21.20;99.90;;;21.85;nan;101269.94;4971995;28;20775;-66
2022/06/28 04:54:01;;;;;;;2.13;1.40;;;21.40;99.90;;;22.02;nan;101272.41;4964240;28;20713;-66
2022/06/28 04:56:28;;;;;;;1.60;1.60;;;21.60;99.90;;;22.14;nan;101272.88;4971811;28;20674;-66
2022/06/28 04:58:55;;;;;;;1.67;1.50;;;21.70;99.90;;;22.29;nan;101265.88;4975575;23;21286;-64
2022/06/28 05:01:22;;;;;;;1.43;1.40;;;21.90;99.90;;;22.40;nan;101262.84;4966974;28;20639;-65
2022/06/28 05:03:50;;;;;;;1.40;1.30;;;22.00;99.90;;;22.55;nan;101265.63;4957079;28;20620;-64
2022/06/28 05:06:17;;;;;;;2.03;1.80;;;22.10;99.90;;;22.65;nan;101261.78;4965512;28;20694;-67
2022/06/28 05:08:49;;;;;;;1.40;1.40;;;22.20;99.90;;;22.77;nan;101254.22;4962350;28;20675;-65
2022/06/28 05:11:16;;;;;;;1.83;1.73;;;22.30;99.90;;;22.90;nan;101259.81;4963212;28;20627;-66
2022/06/28 05:13:43;;;;;;;1.90;1.80;;;22.50;99.90;;;22.88;nan;101253.84;4971864;28;20671;-65
2022/06/28 05:16:10;;;;;;;4.87;2.17;;;22.40;99.90;;;23.06;nan;101254.41;4973019;28;20670;-67
2022/06/28 05:18:37;;;;;;;1.80;1.70;;;22.60;99.90;;;23.30;nan;101259.56;4970747;28;21251;-66
2022/06/28 05:21:04;;;;;;;2.77;2.00;;;22.90;99.90;;;23.51;nan;101251.75;4972929;28;20627;-66
2022/06/28 05:23:31;;;;;;;2.03;1.93;;;23.10;99.90;;;23.59;nan;101257.03;4970751;28;20638;-66
2022/06/28 05:25:58;;;;;;;2.40;2.20;;;23.20;99.90;;;23.68;nan;101268.47;4971707;28;20630;-67
2022/06/28 05:28:25;;;;;;;2.83;1.90;;;23.30;99.90;;;23.89;nan;101265.94;4971072;28;20678;-65
2022/06/28 05:30:53;;;;;;;4.23;2.67;;;23.50;99.90;;;24.11;nan;101267.72;4969836;28;20705;-65
2022/06/28 05:33:21;;;;;;;3.00;2.70;;;23.70;99.90;;;24.33;nan;101258.81;4970224;28;20657;-66
2022/06/28 05:35:49;;;;;;;6.53;3.20;;;23.90;99.90;;;24.49;nan;101257.81;4970899;28;20742;-65
2022/06/28 05:38:16;;;;;;;5.73;3.53;;;24.10;99.90;;;24.63;nan;101256.97;4970079;28;21359;-65
2022/06/28 05:40:43;;;;;;;4.17;3.77;;;24.20;99.90;;;24.73;nan;101260.16;4959957;28;20643;-66
2022/06/28 05:43:11;;;;;;;6.43;4.03;;;24.40;99.90;;;24.81;nan;101264.59;4970893;28;20753;-65
2022/06/28 05:45:38;;;;;;;4.37;3.97;;;24.40;99.90;;;24.74;nan;101264.53;4952525;28;20658;-65
2022/06/28 05:48:05;;;;;;;5.23;3.43;;;24.30;99.90;;;25.00;nan;101269.34;4971665;28;21261;-68
2022/06/28 05:50:32;;;;;;;3.47;3.17;;;24.50;99.90;;;25.15;nan;101259.44;4970879;28;20817;-66
2022/06/28 05:52:59;;;;;;;3.67;3.27;;;24.70;99.90;;;;;;4969944;28;20640;-65
2022/06/28 05:55:28;;;;;;;2.87;2.50;;;24.80;99.90;;;;;;4971775;28;20611;-66
2022/06/28 05:57:55;;;;;;;6.87;3.73;;;25.20;99.60;;;;;;4969173;28;20663;-68
2022/06/28 06:00:22;;;;;;;3.27;3.07;;;25.50;99.20;;;;;;4964922;28;20623;-65
2022/06/28 06:02:49;;;;;;;3.30;3.00;;;25.80;98.10;;;;;;4970237;28;20614;-65
2022/06/28 06:05:16;;;;;;;3.07;2.73;;;26.00;97.40;;;26.55;nan;101262.00;4971615;28;20647;-65
2022/06/28 06:07:44;;;;;;;3.43;3.13;;;26.30;96.60;;;26.79;nan;101261.53;4971055;28;20678;-66
2022/06/28 06:10:12;;;;;;;7.63;3.33;;;26.40;95.70;;;27.05;nan;101261.59;4971517;28;20646;-68
2022/06/28 06:12:39;;;;;;;4.07;3.67;;;26.70;95.20;;;27.27;nan;101259.56;4972251;28;20638;-65
2022/06/28 06:15:07;;;;;;;3.17;2.87;;;27.00;93.80;;;27.64;nan;101265.19;4971644;28;20658;-66
2022/06/28 06:17:34;;;;;;;4.13;3.00;;;27.30;93.80;;;28.18;nan;101261.47;4957450;28;20668;-65
2022/06/28 06:20:08;;;;;;;3.23;3.03;;;27.80;93.10;;;28.39;nan;101256.66;4970248;28;20634;-65
2022/06/28 06:22:35;;;;;;;8.53;3.70;;;28.10;92.00;;;28.62;nan;101269.63;4971846;28;20635;-65
2022/06/28 06:25:05;;;;;;;3.07;2.87;;;28.30;91.50;;;29.22;nan;101254.06;4971923;28;20615;-66
2022/06/28 06:27:36;;;;;;;4.07;3.47;;;28.80;90.50;;;30.04;nan;101249.22;4970072;28;20675;-65
2022/06/28 06:30:05;;;;;;;3.00;2.80;;;29.70;88.30;;;30.49;nan;101261.41;4953534;28;20636;-66
2022/06/28 06:32:33;;;;;;;3.37;3.07;;;30.20;84.20;;;31.12;nan;101253.72;4964510;28;20706;-65
2022/06/28 06:35:00;;;;;;;3.00;2.80;;;30.70;81.40;;;31.21;nan;101256.91;4963287;28;20671;-69
2022/06/28 06:37:28;;;;;;;4.80;4.27;;;31.10;77.10;;;32.01;nan;101248.13;4952664;28;20658;-66
2022/06/28 06:39:55;;;;;;;3.90;3.10;;;31.60;74.90;;;32.66;nan;101247.91;4965210;28;20631;-66
2022/06/28 06:42:22;;;;;;;3.63;3.43;;;32.30;72.10;;;33.47;nan;101247.53;4967546;28;20638;-66
2022/06/28 06:44:49;;;;;;;2.90;2.80;;;33.00;68.80;;;34.37;nan;101250.78;4962939;28;20643;-65
2022/06/28 06:47:16;;;;;;;2.40;2.17;;;33.90;66.70;;;35.35;nan;101250.53;4961920;28;20644;-66
2022/06/28 06:49:43;;;;;;;2.40;2.30;;;34.90;63.20;;;36.27;nan;101253.63;4950626;28;20647;-66
2022/06/28 06:52:10;;;;;;;3.00;2.30;;;35.80;60.60;;;36.90;nan;101255.25;4951160;28;20636;-67
2022/06/28 06:54:37;;;;;;;2.83;2.63;;;36.40;58.20;;;36.38;nan;101241.72;4954020;28;20687;-65
2022/06/28 06:57:07;;;;;;;2.93;2.70;;;36.30;56.60;;;36.80;nan;101227.19;4963201;28;20678;-68
2022/06/28 06:59:34;;;;;;;2.90;2.70;;;36.30;56.60;;;36.83;nan;101237.50;4962277;28;20721;-66
2022/06/28 07:02:01;;;;;;;2.30;2.20;;;36.20;55.80;;;37.62;nan;101238.69;4967278;28;20982;-66
2022/06/28 07:04:28;;;;;;;2.50;2.00;;;37.00;53.10;;;37.68;nan;101244.94;4975492;28;20639;-66
2022/06/28 07:07:00;;;;;;;1.90;1.80;;;37.10;50.80;;;37.38;nan;101236.81;4969823;28;20635;-67
2022/06/28 07:09:27;;;;;;;1.83;1.70;;;36.70;50.00;;;38.33;nan;101242.09;4970842;28;21031;-66
2022/06/28 07:11:54;;;;;;;2.47;2.37;;;37.50;50.60;;;37.72;nan;101244.13;4969127;28;21179;-67
2022/06/28 07:14:21;;;;;;;2.40;2.10;;;37.20;50.10;;;37.86;nan;101234.34;4969100;28;21534;-67
2022/06/28 07:16:48;;;;;;;1.50;1.50;;;37.20;50.20;;;38.87;nan;101239.34;4970592;28;20631;-66
2022/06/28 07:19:15;;;;;;;1.97;1.50;;;38.20;49.40;;;39.69;nan;101241.19;4957242;28;21031;-66
2022/06/28 07:21:44;;;;;;;1.90;1.80;;;39.00;48.40;;;39.06;nan;101232.13;4952587;28;20632;-63
2022/06/28 07:24:11;;;;;;;2.00;1.73;;;38.90;47.00;;;38.83;nan;101221.91;4961065;28;20631;-64
2022/06/28 07:26:39;;;;;;;1.70;1.60;;;38.10;47.90;;;39.65;nan;101222.91;4970490;28;20685;-64
2022/06/28 07:29:06;;;;;;;2.93;1.80;;;38.90;47.90;;;40.46;nan;101226.38;4966812;28;20682;-67
2022/06/28 07:31:40;;;;;;;3.07;1.83;;;39.80;46.10;;;40.09;nan;101227.09;4956167;28;20639;-65
2022/06/28 07:34:07;;;;;;;1.30;1.30;;;39.40;46.10;;;40.78;nan;101218.25;4968706;28;20687;-64
2022/06/28 07:36:34;;;;;;;1.40;1.30;;;40.10;44.50;;;41.27;nan;101234.22;4970125;28;20627;-63
2022/06/28 07:39:01;;;;;;;1.40;1.40;;;40.70;44.20;;;40.53;nan;101226.81;4967240;28;20667;-64
2022/06/28 07:41:28;;;;;;;3.37;1.90;;;40.00;44.20;;;40.10;nan;101227.91;4967024;28;20635;-65
2022/06/28 07:43:55;;;;;;;1.80;1.70;;;39.50;44.50;;;40.47;nan;101230.72;4971374;28;20676;-64
2022/06/28 07:46:25;;;;;;;1.87;1.83;;;39.50;44.90;;;40.44;nan;101225.84;4971259;28;20638;-65
2022/06/28 07:48:54;;;;;;;3.03;1.60;;;39.50;45.20;;;39.38;nan;101223.41;4970822;28;20667;-65
2022/06/28 07:54:07;;;;;;;5.70;2.10;;;38.10;45.10;;;37.60;nan;101213.66;4970799;28;20670;-64
2022/06/28 07:56:34;;;;;;;2.20;2.10;;;36.80;46.20;;;37.22;nan;101211.47;4966352;28;21179;-65
2022/06/28 07:59:02;;;;;;;2.70;2.50;;;36.60;46.50;;;37.23;nan;101213.91;4958733;28;20672;-64
2022/06/28 08:01:29;;;;;;;3.73;1.93;;;36.20;47.40;;;37.10;nan;101209.00;4963369;28;20631;-66
2022/06/28 08:03:56;;;;;;;2.00;1.80;;;35.90;48.10;;;36.76;nan;101210.56;4956726;28;20644;-67
2022/06/28 08:06:23;;;;;;;2.30;2.10;;;35.60;47.50;;;36.21;nan;101200.34;4951168;28;20612;-67
2022/06/28 08:08:50;;;;;;;1.33;1.30;;;35.20;46.90;;;36.10;nan;101209.53;4965276;28;20667;-65
2022/06/28 08:11:18;;;;;;;1.23;1.17;;;35.00;47.80;;;35.44;nan;101204.75;4970837;28;20630;-65
2022/06/28 08:13:47;;;;;;;2.30;1.57;;;34.50;46.70;;;34.49;nan;101197.28;4969256;28;21084;-65
2022/06/28 08:16:16;;;;;;;1.73;1.63;;;33.80;46.80;;;34.31;nan;101197.59;4970907;28;20623;-67
2022/06/28 08:18:44;;;;;;;2.77;2.40;;;33.30;48.50;;;34.07;nan;101198.94;4970507;28;20659;-66
2022/06/28 08:21:14;;;;;;;1.47;1.37;;;33.10;48.30;;;33.41;nan;101206.06;4974584;28;20627;-65
2022/06/28 08:23:41;;;;;;;1.80;1.70;;;32.70;47.90;;;32.84;nan;101197.19;4972250;28;20978;-65
2022/06/28 08:26:08;;;;;;;1.90;1.30;;;32.00;48.30;;;32.69;nan;101196.09;4974100;28;20628;-66
2022/06/28 08:28:36;;;;;;;1.90;1.80;;;31.90;49.70;;;32.66;nan;101192.00;4971400;28;20667;-66
2022/06/28 08:31:02;;;;;;;3.60;1.70;;;31.80;49.90;;;32.68;nan;101179.06;4960903;28;20644;-65
2022/06/28 08:33:30;;;;;;;2.17;1.73;;;31.90;49.70;;;32.63;nan;101187.06;4957493;28;20643;-65
2022/06/28 08:35:57;;;;;;;1.10;1.10;;;31.90;49.80;;;32.03;nan;101180.44;4971764;28;21131;-65
2022/06/28 08:38:24;;;;;;;1.97;1.53;;;31.50;49.70;;;31.69;nan;101173.97;4973078;28;20667;-65
2022/06/28 08:40:52;;;;;;;1.70;1.60;;;31.00;50.10;;;31.21;nan;101174.19;4954765;28;20616;-64
2022/06/28 08:43:19;;;;;;;1.57;1.27;;;30.50;50.30;;;30.26;nan;101171.56;4962048;28;20639;-64
2022/06/28 08:45:47;;;;;;;1.37;1.27;;;29.90;51.20;;;29.77;nan;101167.16;4970582;28;20639;-64
2022/06/28 08:48:30;;;;;;;3.10;2.90;;;29.20;52.60;;;29.37;nan;101165.84;4971737;28;20689;-64
2022/06/28 08:51:00;;;;;;;2.23;2.13;;;28.90;53.10;;;29.35;nan;101157.16;4961021;28;21007;-65
2022/06/28 08:53:28;;;;;;;1.80;1.70;;;28.70;54.20;;;29.26;nan;101151.25;4971589;28;20635;-63
2022/06/28 08:55:56;;;;;;;1.80;1.80;;;28.60;54.60;;;29.30;nan;101140.91;4955374;28;20666;-62
2022/06/28 08:58:24;;;;;;;1.80;1.70;;;28.70;54.80;;;29.23;nan;101148.19;4954791;28;20651;-66
2022/06/28 09:00:51;;;;;;;1.60;1.60;;;28.60;54.60;;;29.22;nan;101146.53;4971995;28;20642;-64
2022/06/28 09:03:19;;;;;;;1.90;1.80;;;28.60;54.90;;;30.15;nan;101150.78;4972700;28;20998;-64
2022/06/28 09:05:46;;;;;;;2.40;1.93;;;29.30;54.80;;;33.18;nan;101156.72;4970702;28;20654;-67
2022/06/28 09:08:13;;;;;;;1.30;1.30;;;32.30;51.00;;;36.59;nan;101142.84;4971855;28;20662;-65
2022/06/28 09:10:42;;;;;;;2.33;1.50;;;35.80;47.90;;;39.61;nan;101150.88;4971471;28;20662;-65
2022/06/28 09:13:17;;;;;;;1.60;1.40;;;38.80;44.70;;;42.36;nan;85556.94;4972159;28;20705;-67
2022/06/28 09:15:53;;;;;;;1.90;1.77;;;41.60;41.80;;;44.10;nan;101157.09;4973218;28;20666;-67
2022/06/28 09:18:45;;;;;;;1.43;1.43;;;43.70;39.50;;;44.35;nan;101164.56;4972406;28;20643;-66
2022/06/28 09:21:16;;;;;;;1.70;1.60;;;44.00;39.00;;;43.95;nan;101147.34;4968295;28;20647;-67
2022/06/28 09:23:50;;;;;;;1.40;1.30;;;44.00;37.60;;;43.72;nan;101143.09;4971247;28;21082;-67
2022/06/28 09:26:21;;;;;;;1.47;1.40;;;43.40;37.30;;;44.16;nan;101136.56;4973149;28;21190;-67
2022/06/28 09:28:51;;;;;;;1.40;1.40;;;43.90;37.30;;;45.85;nan;101136.53;4969881;28;20655;-66
2022/06/28 09:31:27;;;;;;;1.47;1.30;;;45.10;36.70;;;47.43;nan;101129.75;4966975;28;20640;-67
2022/06/28 09:34:03;;;;;;;1.60;1.60;;;46.80;35.80;;;47.95;nan;101118.75;4969568;28;20642;-67
2022/06/28 09:36:57;;;;;;;1.90;1.80;;;47.30;35.50;;;48.29;nan;101124.56;4971257;28;20641;-66
2022/06/28 09:39:28;;;;;;;1.40;1.40;;;47.70;35.00;;;48.02;nan;101122.56;4971622;28;20686;-65
2022/06/28 09:41:57;;;;;;;1.50;1.43;;;47.40;34.70;;;48.28;nan;101114.66;4971955;28;20697;-67
2022/06/28 09:44:51;;;;;;;1.90;1.50;;;47.70;33.60;;;48.68;nan;101097.19;4972837;28;20627;-67
2022/06/28 09:47:18;;;;;;;1.77;1.47;;;48.30;33.90;;;48.80;nan;101100.72;4969639;28;21396;-66
2022/06/28 09:49:48;;;;;;;2.10;1.50;;;48.60;33.70;;;47.79;nan;101088.28;4970945;28;21281;-66
2022/06/28 09:52:19;;;;;;;1.33;1.33;;;47.50;33.50;;;48.46;nan;101092.22;4967651;28;20639;-66
2022/06/28 09:54:55;;;;;;;2.83;1.20;;;47.90;33.60;;;49.24;nan;101104.25;4967948;28;20757;-66
2022/06/28 09:57:23;;;;;;;1.27;1.27;;;48.60;32.90;;;48.63;nan;101100.22;4969601;28;20665;-66
2022/06/28 09:59:50;;;;;;;1.40;1.40;;;48.70;32.30;;;47.73;nan;101089.63;4970694;28;20629;-66
2022/06/28 10:02:18;;;;;;;1.40;1.40;;;47.60;32.70;;;47.67;nan;101077.19;4964998;28;20635;-67
2022/06/28 10:04:46;;;;;;;1.17;1.17;;;47.30;32.90;;;46.68;nan;101079.44;4961970;28;20642;-65
2022/06/28 10:07:14;;;;;;;1.20;1.20;;;46.60;32.60;;;45.89;nan;101078.75;4971565;28;20611;-65
2022/06/28 10:09:42;;;;;;;2.00;1.10;;;45.80;33.30;;;43.75;nan;101062.72;4970701;28;20647;-68
2022/06/28 10:15:01;;;;;;;1.70;1.40;;;43.40;34.00;;;41.94;nan;101067.41;4959463;28;20674;-64
2022/06/28 10:17:59;;;;;;;1.20;1.20;;;41.80;34.80;;;40.18;nan;101060.50;4954799;28;20666;-65
2022/06/28 10:20:28;;;;;;;1.13;1.13;;;39.80;35.80;;;38.76;nan;101053.13;4971288;28;20631;-65
2022/06/28 10:23:34;;;;;;;1.50;1.40;;;38.60;36.90;;;36.54;nan;101047.72;4971114;28;20639;-66
2022/06/28 10:26:11;;;;;;;1.30;1.20;;;36.20;38.60;;;34.57;nan;101033.44;4971663;28;20618;-67
2022/06/28 10:28:40;;;;;;;1.40;1.30;;;34.20;39.80;;;33.39;nan;101035.03;4970618;28;20693;-63
2022/06/28 10:31:22;;;;;;;1.10;0.97;;;32.60;41.70;;;32.95;nan;101043.28;4971822;28;20635;-69
2022/06/28 10:34:16;;;;;;;1.43;1.20;;;31.90;42.00;;;32.01;nan;101032.19;4966808;28;20635;-67
2022/06/28 10:36:56;;;;;;;0.93;0.87;;;31.10;41.40;;;31.63;nan;101025.72;4970119;28;20615;-65
2022/06/28 10:39:29;;;;;;;1.20;1.20;;;30.50;41.80;;;30.91;nan;101025.19;4970029;28;20666;-65
2022/06/28 10:41:59;;;;;;;1.10;1.00;;;30.00;42.70;;;30.35;nan;101017.59;4971306;28;20623;-64
2022/06/28 10:44:43;;;;;;;2.40;1.10;;;29.50;43.60;;;30.19;nan;101020.91;4971406;28;21251;-65
2022/06/28 10:47:16;;;;;;;1.87;1.20;;;29.30;44.50;;;29.59;nan;101021.88;4969550;28;20635;-66
2022/06/28 10:49:46;;;;;;;2.43;1.13;;;28.80;44.70;;;29.40;nan;101004.94;4964443;28;21203;-65